createdAt,value
2019-03-20T00:00:25.813Z,81.7
2019-03-20T00:01:26.480Z,81.9
2019-03-20T00:02:27.194Z,81.6
2019-03-20T00:03:27.866Z,81.7
2019-03-20T00:04:28.529Z,81.7
2019-03-20T00:05:29.198Z,82.5
2019-03-20T00:06:29.869Z,82.3
2019-03-20T00:07:30.534Z,82.0
2019-03-20T00:08:31.201Z,82.3
2019-03-20T00:09:31.870Z,82.3
2019-03-20T00:10:32.541Z,81.8
2019-03-20T00:11:33.205Z,81.6
2019-03-20T00:12:33.872Z,82.1
2019-03-20T00:13:34.540Z,81.9
2019-03-20T00:14:35.209Z,82.3
2019-03-20T00:15:35.878Z,82.3
2019-03-20T00:16:36.544Z,82.3
2019-03-20T00:17:37.213Z,82.1
2019-03-20T00:18:37.883Z,81.9
2019-03-20T00:19:38.551Z,82.3
2019-03-20T00:20:39.231Z,82.6
2019-03-20T00:21:39.933Z,82.4
2019-03-20T00:22:43.034Z,82.2
2019-03-20T00:23:42.262Z,82.5
2019-03-20T00:24:42.929Z,83.1
2019-03-20T00:25:43.600Z,82.7
2019-03-20T00:26:44.262Z,83.0
2019-03-20T00:27:44.935Z,83.1
2019-03-20T00:28:45.599Z,82.7
2019-03-20T00:29:46.265Z,82.8
2019-03-20T00:30:46.932Z,82.5
2019-03-20T00:31:47.598Z,82.7
2019-03-20T00:32:48.267Z,82.4
2019-03-20T00:33:48.933Z,82.6
2019-03-20T00:35:00.313Z,82.6
2019-03-20T00:35:51.260Z,83.1
2019-03-20T00:36:51.928Z,82.5
2019-03-20T00:37:52.594Z,82.5
2019-03-20T00:38:53.262Z,82.4
2019-03-20T00:39:53.930Z,82.7
2019-03-20T00:40:54.597Z,82.8
2019-03-20T00:41:55.264Z,83.1
2019-03-20T00:42:55.931Z,83.0
2019-03-20T00:43:56.599Z,83.1
2019-03-20T00:44:57.266Z,83.1
2019-03-20T00:45:57.935Z,82.9
2019-03-20T00:46:58.601Z,83.0
2019-03-20T00:47:59.300Z,82.9
2019-03-20T00:48:59.937Z,83.0
2019-03-20T00:50:00.605Z,82.7
2019-03-20T00:51:01.273Z,82.9
2019-03-20T00:52:01.941Z,83.0
2019-03-20T00:53:02.608Z,82.9
2019-03-20T00:54:03.275Z,82.7
2019-03-20T00:55:03.943Z,82.8
2019-03-20T00:56:04.612Z,82.8
2019-03-20T00:57:05.281Z,82.9
2019-03-20T00:58:05.946Z,83.2
2019-03-20T00:59:06.613Z,82.6
2019-03-20T01:00:07.283Z,83.2
2019-03-20T01:01:07.950Z,83.4
2019-03-20T01:02:08.616Z,83.3
2019-03-20T01:03:09.284Z,83.5
2019-03-20T01:04:09.956Z,83.7
2019-03-20T01:05:12.805Z,83.6
2019-03-20T01:06:11.328Z,83.5
2019-03-20T01:07:11.996Z,83.5
2019-03-20T01:08:12.665Z,83.7
2019-03-20T01:09:13.333Z,83.8
2019-03-20T01:10:14.000Z,83.6
2019-03-20T01:11:14.667Z,83.5
2019-03-20T01:12:17.661Z,83.6
2019-03-20T01:13:16.996Z,83.6
2019-03-20T01:14:17.712Z,83.6
2019-03-20T01:15:18.377Z,83.6
2019-03-20T01:16:19.045Z,83.5
2019-03-20T01:17:19.712Z,83.6
2019-03-20T01:18:22.386Z,83.5
2019-03-20T01:19:21.088Z,83.7
2019-03-20T01:20:21.755Z,83.5
2019-03-20T01:21:22.422Z,83.8
2019-03-20T01:22:23.090Z,83.3
2019-03-20T01:23:23.757Z,83.5
2019-03-20T01:24:24.427Z,83.6
2019-03-20T01:25:25.092Z,83.0
2019-03-20T01:26:25.760Z,83.3
2019-03-20T01:27:26.431Z,83.3
2019-03-20T01:28:27.094Z,83.8
2019-03-20T01:29:27.761Z,83.5
2019-03-20T01:30:28.429Z,83.8
2019-03-20T01:31:29.096Z,83.4
2019-03-20T01:32:29.763Z,83.4
2019-03-20T01:33:30.429Z,83.3
2019-03-20T01:34:31.099Z,83.7
2019-03-20T01:35:31.767Z,83.8
2019-03-20T01:36:32.432Z,83.9
2019-03-20T01:37:33.100Z,84.4
2019-03-20T01:38:33.816Z,84.3
2019-03-20T01:39:34.483Z,84.0
2019-03-20T01:40:35.151Z,84.1
2019-03-20T01:41:38.310Z,84.2
2019-03-20T01:42:37.476Z,84.2
2019-03-20T01:43:38.142Z,84.1
2019-03-20T01:44:38.808Z,84.0
2019-03-20T01:45:39.489Z,84.1
2019-03-20T01:46:40.143Z,84.2
2019-03-20T01:47:40.811Z,84.0
2019-03-20T01:48:41.525Z,84.0
2019-03-20T01:49:42.192Z,83.5
2019-03-20T01:50:42.861Z,84.0
2019-03-20T01:51:43.525Z,83.8
2019-03-20T01:52:44.193Z,83.9
2019-03-20T01:53:44.912Z,83.9
2019-03-20T01:54:45.575Z,84.3
2019-03-20T01:55:46.244Z,83.6
2019-03-20T01:56:46.957Z,83.5
2019-03-20T01:57:47.625Z,84.3
2019-03-20T01:58:48.291Z,83.7
2019-03-20T01:59:48.960Z,83.7
2019-03-20T02:00:49.680Z,83.4
2019-03-20T02:01:50.343Z,83.6
2019-03-20T02:02:51.010Z,83.5
2019-03-20T02:03:51.687Z,83.6
2019-03-20T02:04:52.398Z,83.6
2019-03-20T02:05:53.063Z,83.6
2019-03-20T02:06:53.732Z,83.4
2019-03-20T02:07:54.401Z,83.5
2019-03-20T02:08:55.113Z,83.6
2019-03-20T02:09:55.781Z,83.3
2019-03-20T02:10:56.450Z,83.2
2019-03-20T02:11:57.162Z,83.2
2019-03-20T02:12:58.879Z,83.3
2019-03-20T02:13:59.486Z,83.2
2019-03-20T02:15:00.340Z,83.1
2019-03-20T02:16:00.969Z,83.2
2019-03-20T02:17:01.641Z,83.2
2019-03-20T02:18:02.304Z,83.3
2019-03-20T02:19:02.973Z,82.8
2019-03-20T02:20:03.689Z,82.9
2019-03-20T02:21:04.354Z,82.5
2019-03-20T02:22:05.022Z,82.8
2019-03-20T02:23:05.689Z,83.0
2019-03-20T02:24:06.357Z,83.5
2019-03-20T02:25:07.022Z,83.2
2019-03-20T02:26:07.691Z,83.6
2019-03-20T02:27:08.360Z,83.5
2019-03-20T02:28:09.025Z,83.5
2019-03-20T02:29:09.692Z,83.1
2019-03-20T02:30:10.362Z,83.9
2019-03-20T02:31:11.028Z,83.8
2019-03-20T02:32:11.695Z,83.9
2019-03-20T02:33:12.364Z,83.5
2019-03-20T02:34:13.031Z,83.9
2019-03-20T02:35:13.698Z,83.4
2019-03-20T02:36:14.374Z,84.2
2019-03-20T02:37:15.030Z,84.0
2019-03-20T02:38:15.700Z,84.0
2019-03-20T02:39:16.366Z,84.0
2019-03-20T02:40:17.085Z,84.0
2019-03-20T02:41:17.739Z,84.7
2019-03-20T02:42:18.415Z,84.4
2019-03-20T02:43:19.122Z,84.4
2019-03-20T02:44:19.800Z,84.6
2019-03-20T02:45:20.456Z,84.4
2019-03-20T02:46:21.123Z,84.4
2019-03-20T02:47:21.790Z,84.4
2019-03-20T02:48:22.464Z,84.3
2019-03-20T02:49:23.175Z,84.5
2019-03-20T02:50:23.841Z,83.9
2019-03-20T02:51:24.506Z,84.0
2019-03-20T02:52:25.173Z,83.8
2019-03-20T02:53:25.842Z,84.0
2019-03-20T02:54:26.508Z,84.0
2019-03-20T02:55:27.178Z,84.0
2019-03-20T02:56:27.846Z,84.0
2019-03-20T02:57:28.580Z,83.9
2019-03-20T02:58:29.217Z,83.9
2019-03-20T02:59:29.885Z,83.8
2019-03-20T03:00:30.552Z,84.2
2019-03-20T03:01:31.219Z,83.5
2019-03-20T03:02:31.888Z,83.6
2019-03-20T03:03:32.558Z,83.9
2019-03-20T03:04:33.218Z,83.8
2019-03-20T03:05:33.886Z,83.7
2019-03-20T03:06:34.553Z,83.6
2019-03-20T03:07:35.220Z,84.0
2019-03-20T03:08:35.887Z,83.8
2019-03-20T03:09:36.555Z,83.9
2019-03-20T03:10:37.221Z,83.9
2019-03-20T03:11:37.889Z,84.4
2019-03-20T03:12:38.554Z,84.7
2019-03-20T03:13:39.224Z,84.0
2019-03-20T03:14:39.891Z,83.8
2019-03-20T03:15:40.558Z,83.9
2019-03-20T03:16:41.232Z,84.2
2019-03-20T03:17:41.893Z,83.8
2019-03-20T03:18:42.559Z,84.1
2019-03-20T03:19:43.233Z,84.2
2019-03-20T03:20:43.893Z,83.9
2019-03-20T03:21:44.561Z,84.0
2019-03-20T03:22:45.233Z,84.6
2019-03-20T03:23:45.942Z,84.5
2019-03-20T03:24:46.609Z,84.5
2019-03-20T03:25:49.930Z,84.4
2019-03-20T03:26:48.934Z,84.4
2019-03-20T03:27:49.602Z,84.3
2019-03-20T03:28:50.271Z,84.7
2019-03-20T03:29:50.983Z,84.3
2019-03-20T03:30:51.648Z,84.4
2019-03-20T03:31:52.317Z,84.3
2019-03-20T03:32:52.988Z,84.5
2019-03-20T03:33:53.699Z,84.4
2019-03-20T03:34:54.411Z,84.5
2019-03-20T03:35:55.077Z,84.1
2019-03-20T03:36:55.743Z,83.9
2019-03-20T03:37:56.410Z,83.8
2019-03-20T03:38:57.077Z,83.8
2019-03-20T03:39:57.747Z,84.0
2019-03-20T03:40:58.458Z,84.0
2019-03-20T03:41:59.126Z,84.0
2019-03-20T03:42:59.810Z,83.8
2019-03-20T03:44:00.464Z,83.8
2019-03-20T03:45:01.177Z,83.8
2019-03-20T03:46:01.849Z,84.3
2019-03-20T03:47:02.507Z,84.0
2019-03-20T03:48:03.194Z,83.8
2019-03-20T03:49:03.840Z,84.0
2019-03-20T03:50:04.522Z,84.2
2019-03-20T03:51:05.220Z,83.5
2019-03-20T03:52:05.885Z,84.0
2019-03-20T03:53:06.554Z,84.0
2019-03-20T03:54:07.268Z,83.9
2019-03-20T03:55:07.936Z,83.9
2019-03-20T03:56:08.601Z,83.9
2019-03-20T03:57:09.271Z,84.2
2019-03-20T03:58:09.983Z,84.9
2019-03-20T03:59:10.697Z,84.1
2019-03-20T04:00:11.364Z,84.3
2019-03-20T04:01:12.032Z,84.1
2019-03-20T04:02:12.699Z,84.6
2019-03-20T04:03:13.366Z,85.0
2019-03-20T04:04:14.047Z,85.0
2019-03-20T04:05:14.699Z,84.4
2019-03-20T04:06:15.365Z,84.4
2019-03-20T04:07:16.032Z,84.4
2019-03-20T04:08:16.702Z,84.5
2019-03-20T04:09:17.380Z,84.7
2019-03-20T04:10:18.046Z,84.5
2019-03-20T04:11:18.739Z,84.7
2019-03-20T04:12:19.451Z,84.7
2019-03-20T04:13:20.118Z,84.5
2019-03-20T04:14:20.788Z,84.5
2019-03-20T04:15:21.451Z,84.8
2019-03-20T04:16:22.117Z,84.6
2019-03-20T04:17:22.786Z,84.7
2019-03-20T04:18:23.461Z,84.6
2019-03-20T04:19:24.117Z,84.6
2019-03-20T04:20:24.783Z,84.9
2019-03-20T04:21:25.458Z,85.0
2019-03-20T04:22:26.122Z,85.0
2019-03-20T04:23:26.832Z,85.0
2019-03-20T04:24:27.500Z,84.6
2019-03-20T04:25:28.171Z,85.0
2019-03-20T04:26:28.838Z,85.0
2019-03-20T04:27:29.499Z,85.0
2019-03-20T04:28:30.168Z,84.9
2019-03-20T04:29:30.833Z,85.1
2019-03-20T04:30:31.499Z,85.0
2019-03-20T04:31:32.231Z,84.9
2019-03-20T04:32:32.928Z,84.7
2019-03-20T04:33:33.597Z,85.3
2019-03-20T04:34:34.259Z,85.4
2019-03-20T04:35:34.927Z,85.3
2019-03-20T04:36:46.757Z,85.7
2019-03-20T04:37:37.253Z,85.4
2019-03-20T04:38:37.922Z,85.6
2019-03-20T04:39:38.599Z,85.5
2019-03-20T04:40:39.257Z,85.5
2019-03-20T04:41:39.930Z,85.6
2019-03-20T04:42:40.587Z,85.3
2019-03-20T04:43:41.254Z,85.3
2019-03-20T04:44:41.920Z,85.3
2019-03-20T04:45:42.585Z,85.3
2019-03-20T04:46:43.255Z,85.0
2019-03-20T04:47:43.921Z,85.6
2019-03-20T04:48:44.586Z,85.7
2019-03-20T04:49:45.251Z,85.9
2019-03-20T04:50:45.920Z,85.9
2019-03-20T04:51:46.586Z,85.9
2019-03-20T04:52:47.253Z,85.7
2019-03-20T04:53:47.921Z,85.1
2019-03-20T04:54:48.636Z,85.3
2019-03-20T04:55:49.300Z,85.3
2019-03-20T04:56:49.968Z,85.5
2019-03-20T04:57:50.634Z,86.4
2019-03-20T04:58:51.302Z,86.1
2019-03-20T04:59:51.970Z,85.8
2019-03-20T05:00:52.640Z,85.9
2019-03-20T05:01:53.306Z,85.8
2019-03-20T05:02:53.979Z,86.0
2019-03-20T05:03:54.644Z,85.8
2019-03-20T05:04:55.308Z,86.2
2019-03-20T05:05:55.978Z,85.8
2019-03-20T05:06:59.035Z,85.8
2019-03-20T05:07:57.353Z,86.0
2019-03-20T05:08:58.021Z,86.2
2019-03-20T05:09:58.689Z,86.2
2019-03-20T05:10:59.359Z,86.0
2019-03-20T05:12:00.022Z,86.2
2019-03-20T05:13:00.691Z,86.1
2019-03-20T05:14:01.361Z,85.9
2019-03-20T05:15:02.029Z,85.9
2019-03-20T05:16:02.695Z,86.1
2019-03-20T05:17:03.365Z,85.9
2019-03-20T05:18:04.034Z,86.0
2019-03-20T05:19:04.700Z,86.1
2019-03-20T05:20:05.417Z,86.0
2019-03-20T05:21:06.087Z,85.9
2019-03-20T05:22:06.755Z,85.9
2019-03-20T05:23:08.510Z,86.0
2019-03-20T05:24:09.083Z,85.8
2019-03-20T05:25:09.754Z,86.3
2019-03-20T05:26:10.425Z,86.1
2019-03-20T05:27:11.090Z,86.3
2019-03-20T05:28:11.759Z,86.1
2019-03-20T05:29:12.429Z,86.5
2019-03-20T05:30:13.100Z,86.5
2019-03-20T05:31:13.770Z,86.3
2019-03-20T05:32:14.440Z,86.6
2019-03-20T05:33:15.112Z,86.3
2019-03-20T05:34:15.779Z,86.1
2019-03-20T05:35:16.451Z,86.3
2019-03-20T05:36:17.174Z,86.7
2019-03-20T05:37:17.887Z,86.5
2019-03-20T05:38:18.558Z,86.7
2019-03-20T05:39:19.227Z,86.5
2019-03-20T05:40:19.935Z,86.5
2019-03-20T05:41:20.623Z,86.5
2019-03-20T05:42:21.250Z,86.3
2019-03-20T05:43:21.919Z,86.3
2019-03-20T05:44:22.588Z,86.2
2019-03-20T05:45:23.261Z,86.9
2019-03-20T05:46:23.927Z,86.1
2019-03-20T05:47:24.597Z,86.7
2019-03-20T05:48:25.263Z,86.5
2019-03-20T05:49:25.933Z,86.5
2019-03-20T05:50:26.603Z,86.3
2019-03-20T05:51:27.331Z,86.3
2019-03-20T05:52:28.044Z,86.2
2019-03-20T05:53:28.715Z,85.8
2019-03-20T05:54:29.385Z,86.0
2019-03-20T05:55:30.072Z,86.2
2019-03-20T05:56:30.776Z,86.0
2019-03-20T05:57:31.447Z,85.2
2019-03-20T05:58:32.168Z,85.3
2019-03-20T05:59:32.791Z,85.6
2019-03-20T06:00:33.463Z,85.2
2019-03-20T06:01:34.134Z,85.8
2019-03-20T06:02:34.804Z,85.3
2019-03-20T06:03:35.474Z,85.8
2019-03-20T06:04:36.147Z,86.0
2019-03-20T06:05:36.819Z,85.7
2019-03-20T06:06:37.487Z,85.5
2019-03-20T06:07:38.160Z,85.3
2019-03-20T06:08:38.836Z,85.3
2019-03-20T06:09:39.502Z,85.3
2019-03-20T06:10:40.178Z,85.2
2019-03-20T06:11:40.852Z,85.6
2019-03-20T06:12:41.516Z,85.6
2019-03-20T06:13:42.187Z,85.1
2019-03-20T06:14:42.859Z,85.0
2019-03-20T06:15:43.530Z,85.0
2019-03-20T06:16:44.200Z,85.6
2019-03-20T06:17:46.871Z,85.0
2019-03-20T06:18:46.571Z,85.0
2019-03-20T06:19:47.258Z,85.0
2019-03-20T06:20:47.927Z,84.9
2019-03-20T06:21:48.599Z,84.4
2019-03-20T06:22:49.269Z,84.7
2019-03-20T06:23:49.941Z,84.9
2019-03-20T06:24:50.612Z,84.4
2019-03-20T06:25:51.668Z,84.4
2019-03-20T06:26:52.383Z,84.3
2019-03-20T06:27:53.215Z,84.1
2019-03-20T06:28:53.880Z,83.8
2019-03-20T06:29:54.552Z,83.9
2019-03-20T06:30:55.223Z,83.7
2019-03-20T06:31:55.893Z,83.7
2019-03-20T06:32:56.567Z,83.9
2019-03-20T06:33:57.238Z,83.8
2019-03-20T06:34:57.907Z,83.4
2019-03-20T06:35:58.581Z,83.6
2019-03-20T06:36:59.326Z,83.6
2019-03-20T06:37:59.969Z,83.4
2019-03-20T06:39:00.644Z,83.2
2019-03-20T06:40:01.314Z,83.0
2019-03-20T06:41:01.991Z,83.3
2019-03-20T06:42:02.658Z,82.7
2019-03-20T06:43:03.328Z,83.4
2019-03-20T06:44:04.001Z,83.4
2019-03-20T06:45:04.675Z,83.2
2019-03-20T06:46:05.343Z,82.9
2019-03-20T06:47:06.016Z,83.2
2019-03-20T06:48:06.688Z,82.7
2019-03-20T06:49:08.029Z,83.0
2019-03-20T06:50:08.777Z,82.6
2019-03-20T06:51:09.447Z,82.8
2019-03-20T06:52:10.124Z,82.7
2019-03-20T06:53:10.791Z,82.7
2019-03-20T06:54:11.466Z,82.8
2019-03-20T06:55:12.138Z,82.4
2019-03-20T06:56:12.805Z,82.2
2019-03-20T06:57:13.479Z,82.3
2019-03-20T06:58:14.156Z,82.3
2019-03-20T06:59:14.904Z,82.4
2019-03-20T07:00:15.591Z,81.9
2019-03-20T07:01:16.265Z,82.4
2019-03-20T07:02:16.936Z,81.6
2019-03-20T07:03:17.606Z,81.7
2019-03-20T07:04:18.279Z,81.9
2019-03-20T07:05:18.953Z,81.9
2019-03-20T07:06:19.621Z,81.6
2019-03-20T07:07:20.296Z,81.8
2019-03-20T07:08:21.018Z,81.2
2019-03-20T07:09:21.687Z,81.2
2019-03-20T07:10:22.405Z,81.2
2019-03-20T07:11:23.080Z,81.1
2019-03-20T07:12:23.750Z,81.0
2019-03-20T07:13:24.471Z,81.2
2019-03-20T07:14:25.175Z,80.6
2019-03-20T07:15:25.876Z,80.3
2019-03-20T07:16:26.539Z,80.4
2019-03-20T07:17:27.257Z,80.4
2019-03-20T07:18:27.929Z,80.3
2019-03-20T07:19:28.602Z,80.5
2019-03-20T07:20:29.326Z,80.5
2019-03-20T07:21:29.995Z,80.4
2019-03-20T07:22:30.665Z,80.2
2019-03-20T07:23:31.339Z,80.3
2019-03-20T07:24:32.010Z,79.7
2019-03-20T07:25:32.686Z,79.8
2019-03-20T07:26:33.357Z,79.9
2019-03-20T07:27:34.030Z,79.0
2019-03-20T07:28:34.700Z,78.8
2019-03-20T07:29:35.372Z,79.3
2019-03-20T07:30:36.045Z,78.8
2019-03-20T07:31:36.717Z,78.4
2019-03-20T07:32:37.389Z,78.0
2019-03-20T07:33:38.063Z,78.3
2019-03-20T07:34:38.735Z,77.8
2019-03-20T07:35:39.407Z,77.8
2019-03-20T07:36:40.081Z,77.3
2019-03-20T07:37:40.755Z,77.5
2019-03-20T07:38:41.426Z,77.8
2019-03-20T07:39:42.099Z,77.3
2019-03-20T07:40:42.775Z,77.1
2019-03-20T07:41:43.447Z,76.2
2019-03-20T07:42:44.117Z,76.1
2019-03-20T07:43:44.790Z,76.1
2019-03-20T07:44:45.464Z,76.1
2019-03-20T07:45:46.138Z,75.8
2019-03-20T07:46:46.812Z,74.9
2019-03-20T07:47:47.486Z,74.8
2019-03-20T07:48:48.162Z,74.5
2019-03-20T07:49:48.833Z,74.3
2019-03-20T07:50:49.508Z,73.8
2019-03-20T07:51:50.181Z,73.2
2019-03-20T07:52:50.911Z,73.1
2019-03-20T07:53:51.534Z,72.5
2019-03-20T07:54:54.602Z,71.9
2019-03-20T07:55:53.923Z,70.8
2019-03-20T07:56:54.646Z,70.5
2019-03-20T07:57:55.321Z,67.9
2019-03-20T07:58:55.996Z,64.6
2019-03-20T07:59:56.672Z,62.4
2019-03-20T08:00:57.346Z,59.7
2019-03-20T08:01:58.018Z,56.2
2019-03-20T08:02:58.694Z,53.9
2019-03-20T08:03:59.371Z,50.0
2019-03-20T08:05:00.048Z,47.9
2019-03-20T08:06:00.725Z,46.1
2019-03-20T08:07:01.403Z,45.1
2019-03-20T08:08:07.277Z,43.3
2019-03-20T08:09:03.750Z,41.7
2019-03-20T08:10:04.431Z,40.6
2019-03-20T08:11:05.105Z,39.6
2019-03-20T08:12:05.784Z,38.1
2019-03-20T08:13:06.510Z,36.6
2019-03-20T08:14:07.186Z,36.5
2019-03-20T08:15:07.868Z,35.8
2019-03-20T08:16:08.546Z,35.4
2019-03-20T08:17:09.226Z,35.2
2019-03-20T08:18:09.906Z,34.2
2019-03-20T08:19:10.587Z,33.5
2019-03-20T08:20:11.263Z,32.6
2019-03-20T08:21:11.945Z,32.9
2019-03-20T08:22:12.625Z,33.1
2019-03-20T08:23:13.306Z,33.1
2019-03-20T08:24:13.985Z,32.6
2019-03-20T08:25:14.664Z,32.1
2019-03-20T08:26:15.346Z,31.8
2019-03-20T08:27:16.027Z,31.6
2019-03-20T08:28:16.708Z,31.5
2019-03-20T08:29:17.389Z,31.5
2019-03-20T08:30:18.070Z,31.6
2019-03-20T08:31:18.752Z,31.1
2019-03-20T08:32:19.434Z,30.6
2019-03-20T08:33:20.132Z,30.6
2019-03-20T08:34:20.797Z,30.5
2019-03-20T08:35:21.480Z,31.4
2019-03-20T08:36:22.209Z,31.2
2019-03-20T08:37:22.892Z,31.3
2019-03-20T08:38:23.577Z,31.4
2019-03-20T08:39:24.307Z,31.2
2019-03-20T08:40:24.990Z,31.1
2019-03-20T08:41:25.673Z,30.7
2019-03-20T08:42:26.355Z,30.6
2019-03-20T08:43:27.038Z,30.2
2019-03-20T08:44:27.721Z,30.1
2019-03-20T08:45:28.453Z,30.6
2019-03-20T08:46:29.136Z,30.7
2019-03-20T08:47:29.821Z,30.4
2019-03-20T08:48:30.504Z,30.5
2019-03-20T08:49:31.187Z,30.8
2019-03-20T08:50:31.871Z,30.6
2019-03-20T08:51:32.573Z,30.8
2019-03-20T08:52:33.286Z,30.3
2019-03-20T08:53:33.969Z,30.6
2019-03-20T08:54:34.662Z,30.5
2019-03-20T08:55:35.383Z,30.4
2019-03-20T08:56:36.067Z,30.4
2019-03-20T08:57:36.752Z,30.4
2019-03-20T08:58:37.432Z,31.5
2019-03-20T08:59:38.163Z,31.4
2019-03-20T09:00:38.844Z,31.4
2019-03-20T09:01:39.529Z,31.2
2019-03-20T09:02:40.213Z,31.3
2019-03-20T09:03:40.896Z,31.2
2019-03-20T09:04:41.579Z,31.5
2019-03-20T09:05:42.261Z,31.3
2019-03-20T09:06:42.945Z,32.1
2019-03-20T09:07:47.442Z,31.8
2019-03-20T09:08:45.309Z,31.5
2019-03-20T09:09:45.993Z,31.0
2019-03-20T09:10:46.723Z,31.0
2019-03-20T09:11:47.408Z,30.6
2019-03-20T09:12:48.092Z,30.1
2019-03-20T09:13:48.775Z,30.0
2019-03-20T09:14:49.492Z,30.6
2019-03-20T09:15:50.226Z,30.8
2019-03-20T09:16:50.921Z,30.4
2019-03-20T09:17:51.608Z,30.1
2019-03-20T09:18:52.334Z,30.4
2019-03-20T09:19:53.022Z,30.4
2019-03-20T09:20:53.705Z,30.2
2019-03-20T09:21:54.551Z,29.9
2019-03-20T09:22:55.212Z,30.0
2019-03-20T09:23:55.897Z,29.8
2019-03-20T09:24:56.580Z,29.6
2019-03-20T09:25:57.265Z,29.5
2019-03-20T09:26:57.949Z,30.3
2019-03-20T09:27:58.633Z,30.9
2019-03-20T09:28:59.320Z,31.6
2019-03-20T09:30:00.001Z,31.5
2019-03-20T09:31:00.686Z,31.1
2019-03-20T09:32:01.386Z,31.2
2019-03-20T09:33:02.052Z,31.1
2019-03-20T09:34:02.840Z,30.9
2019-03-20T09:35:03.460Z,31.3
2019-03-20T09:36:04.146Z,31.7
2019-03-20T09:37:04.878Z,32.0
2019-03-20T09:38:05.564Z,32.6
2019-03-20T09:39:06.248Z,32.8
2019-03-20T09:40:06.930Z,32.5
2019-03-20T09:41:07.616Z,33.0
2019-03-20T09:42:08.296Z,33.1
2019-03-20T09:43:09.030Z,33.0
2019-03-20T09:44:09.745Z,33.0
2019-03-20T09:45:10.445Z,33.3
2019-03-20T09:46:11.128Z,33.6
2019-03-20T09:47:11.811Z,34.3
2019-03-20T09:48:12.495Z,34.9
2019-03-20T09:49:13.228Z,35.7
2019-03-20T09:50:13.911Z,36.0
2019-03-20T09:51:14.594Z,36.9
2019-03-20T09:52:15.278Z,38.2
2019-03-20T09:53:15.961Z,38.6
2019-03-20T09:54:16.644Z,39.4
2019-03-20T09:55:17.335Z,39.7
2019-03-20T09:56:18.010Z,39.5
2019-03-20T09:57:18.696Z,39.7
2019-03-20T09:58:19.377Z,39.2
2019-03-20T09:59:20.110Z,40.1
2019-03-20T10:00:20.799Z,40.2
2019-03-20T10:01:21.476Z,40.1
2019-03-20T10:02:22.159Z,40.2
2019-03-20T10:03:22.841Z,40.4
2019-03-20T10:04:23.525Z,40.4
2019-03-20T10:05:24.208Z,40.2
2019-03-20T10:06:24.893Z,40.4
2019-03-20T10:07:25.622Z,40.9
2019-03-20T10:08:26.305Z,41.1
2019-03-20T10:09:27.037Z,41.8
2019-03-20T10:10:27.727Z,41.6
2019-03-20T10:11:28.400Z,41.8
2019-03-20T10:12:29.114Z,41.8
2019-03-20T10:13:29.814Z,42.4
2019-03-20T10:14:30.497Z,42.4
2019-03-20T10:15:31.185Z,43.1
2019-03-20T10:16:31.912Z,43.3
2019-03-20T10:17:32.595Z,45.2
2019-03-20T10:18:33.288Z,45.6
2019-03-20T10:19:33.965Z,46.3
2019-03-20T10:20:34.691Z,46.0
2019-03-20T10:21:35.372Z,46.9
2019-03-20T10:22:36.101Z,46.8
2019-03-20T10:23:36.783Z,48.0
2019-03-20T10:24:37.466Z,48.4
2019-03-20T10:25:44.410Z,49.0
2019-03-20T10:26:38.874Z,49.5
2019-03-20T10:27:39.551Z,49.6
2019-03-20T10:28:40.234Z,50.1
2019-03-20T10:29:40.919Z,50.2
2019-03-20T10:30:41.615Z,50.4
2019-03-20T10:31:42.327Z,50.7
2019-03-20T10:32:43.012Z,50.8
2019-03-20T10:33:43.693Z,51.5
2019-03-20T10:34:44.419Z,52.0
2019-03-20T10:35:50.144Z,52.0
2019-03-20T10:36:46.771Z,52.5
2019-03-20T10:37:47.451Z,52.5
2019-03-20T10:38:48.809Z,52.4
2019-03-20T10:39:49.527Z,52.9
2019-03-20T10:40:50.208Z,53.1
2019-03-20T10:41:50.894Z,53.8
2019-03-20T10:42:51.571Z,53.9
2019-03-20T10:43:52.479Z,53.8
2019-03-20T10:44:53.141Z,53.9
2019-03-20T10:45:53.822Z,53.7
2019-03-20T10:46:54.504Z,53.6
2019-03-20T10:47:55.186Z,53.2
2019-03-20T10:48:56.469Z,53.4
2019-03-20T10:49:57.195Z,53.7
2019-03-20T10:50:57.877Z,53.2
2019-03-20T10:51:58.603Z,53.2
2019-03-20T10:52:59.283Z,53.4
2019-03-20T10:53:59.964Z,53.2
2019-03-20T10:55:00.645Z,52.8
2019-03-20T10:56:01.328Z,52.9
2019-03-20T10:57:02.008Z,53.0
2019-03-20T10:58:02.689Z,53.2
2019-03-20T10:59:03.369Z,52.8
2019-03-20T11:00:04.086Z,53.4
2019-03-20T11:01:04.780Z,53.1
2019-03-20T11:02:05.458Z,53.6
2019-03-20T11:03:06.151Z,53.6
2019-03-20T11:04:06.821Z,53.5
2019-03-20T11:05:07.500Z,53.1
2019-03-20T11:06:08.184Z,52.9
2019-03-20T11:07:08.913Z,52.6
2019-03-20T11:08:09.644Z,52.4
2019-03-20T11:09:18.197Z,52.6
2019-03-20T11:10:12.002Z,53.0
2019-03-20T11:11:12.670Z,53.2
2019-03-20T11:12:13.356Z,53.7
2019-03-20T11:13:14.032Z,53.4
2019-03-20T11:14:14.713Z,53.6
2019-03-20T11:15:15.393Z,53.3
2019-03-20T11:16:16.096Z,53.0
2019-03-20T11:17:16.760Z,52.0
2019-03-20T11:18:17.436Z,51.3
2019-03-20T11:19:18.118Z,51.6
2019-03-20T11:20:18.799Z,51.8
2019-03-20T11:21:19.479Z,51.9
2019-03-20T11:22:20.162Z,52.0
2019-03-20T11:23:20.839Z,51.9
2019-03-20T11:24:21.521Z,52.0
2019-03-20T11:25:22.202Z,52.0
2019-03-20T11:26:22.882Z,51.9
2019-03-20T11:27:27.461Z,51.7
2019-03-20T11:28:25.233Z,52.0
2019-03-20T11:29:25.913Z,51.5
2019-03-20T11:30:26.593Z,51.5
2019-03-20T11:31:27.274Z,51.5
2019-03-20T11:32:27.955Z,50.8
2019-03-20T11:33:28.637Z,50.7
2019-03-20T11:34:29.363Z,51.4
2019-03-20T11:35:30.049Z,52.3
2019-03-20T11:36:30.726Z,52.7
2019-03-20T11:37:31.405Z,52.6
2019-03-20T11:38:32.087Z,51.7
2019-03-20T11:39:32.769Z,51.5
2019-03-20T11:40:33.448Z,51.3
2019-03-20T11:41:34.128Z,51.5
2019-03-20T11:42:34.807Z,51.3
2019-03-20T11:43:35.489Z,50.3
2019-03-20T11:44:36.170Z,50.2
2019-03-20T11:45:36.849Z,50.4
2019-03-20T11:46:37.529Z,50.4
2019-03-20T11:47:38.251Z,50.3
2019-03-20T11:48:38.940Z,49.6
2019-03-20T11:49:39.620Z,49.7
2019-03-20T11:50:40.307Z,49.8
2019-03-20T11:51:40.983Z,50.6
2019-03-20T11:52:41.663Z,49.5
2019-03-20T11:53:42.344Z,49.7
2019-03-20T11:54:43.024Z,50.1
2019-03-20T11:55:43.707Z,51.2
2019-03-20T11:56:44.391Z,50.4
2019-03-20T11:57:45.115Z,49.8
2019-03-20T11:58:45.795Z,50.1
2019-03-20T11:59:46.476Z,50.9
2019-03-20T12:00:47.204Z,51.3
2019-03-20T12:01:47.886Z,50.7
2019-03-20T12:02:48.566Z,50.4
2019-03-20T12:03:49.248Z,49.9
2019-03-20T12:04:49.929Z,49.5
2019-03-20T12:05:50.608Z,49.1
2019-03-20T12:06:51.288Z,49.4
2019-03-20T12:07:51.970Z,49.4
2019-03-20T12:08:52.650Z,49.7
2019-03-20T12:09:53.331Z,49.7
2019-03-20T12:10:54.011Z,49.7
2019-03-20T12:11:54.697Z,49.7
2019-03-20T12:12:55.421Z,49.7
2019-03-20T12:13:56.102Z,49.5
2019-03-20T12:14:56.785Z,49.5
2019-03-20T12:15:57.465Z,49.4
2019-03-20T12:16:58.145Z,49.6
2019-03-20T12:17:58.825Z,49.8
2019-03-20T12:18:59.506Z,49.7
2019-03-20T12:20:00.255Z,50.7
2019-03-20T12:21:01.065Z,51.1
2019-03-20T12:22:01.746Z,51.3
2019-03-20T12:23:02.433Z,51.6
2019-03-20T12:24:03.157Z,51.2
2019-03-20T12:25:03.838Z,51.3
2019-03-20T12:26:04.520Z,51.1
2019-03-20T12:27:14.718Z,51.1
2019-03-20T12:28:06.873Z,51.1
2019-03-20T12:29:07.556Z,51.3
2019-03-20T12:30:08.235Z,51.0
2019-03-20T12:31:08.916Z,50.7
2019-03-20T12:32:09.645Z,50.9
2019-03-20T12:33:10.325Z,50.9
2019-03-20T12:34:11.006Z,50.1
2019-03-20T12:35:11.686Z,49.8
2019-03-20T12:36:12.368Z,50.3
2019-03-20T12:37:13.050Z,51.0
2019-03-20T12:38:15.287Z,51.3
2019-03-20T12:39:15.404Z,51.3
2019-03-20T12:40:16.085Z,50.9
2019-03-20T12:41:16.767Z,50.1
2019-03-20T12:42:17.447Z,49.9
2019-03-20T12:43:18.135Z,50.5
2019-03-20T12:44:18.810Z,50.6
2019-03-20T12:45:19.492Z,50.6
2019-03-20T12:46:20.175Z,51.1
2019-03-20T12:47:20.863Z,50.7
2019-03-20T12:48:21.537Z,50.8
2019-03-20T12:49:22.219Z,50.8
2019-03-20T12:50:22.899Z,50.8
2019-03-20T12:51:23.581Z,51.0
2019-03-20T12:52:24.263Z,51.0
2019-03-20T12:53:24.943Z,51.1
2019-03-20T12:54:25.623Z,51.0
2019-03-20T12:55:26.303Z,51.0
2019-03-20T12:56:26.985Z,50.6
2019-03-20T12:57:27.678Z,50.8
2019-03-20T12:58:28.347Z,49.6
2019-03-20T12:59:29.027Z,49.3
2019-03-20T13:00:29.708Z,49.9
2019-03-20T13:01:30.390Z,49.8
2019-03-20T13:02:31.071Z,49.5
2019-03-20T13:03:31.752Z,49.4
2019-03-20T13:04:32.433Z,49.8
2019-03-20T13:05:33.115Z,48.5
2019-03-20T13:06:33.795Z,48.2
2019-03-20T13:07:34.476Z,48.4
2019-03-20T13:08:35.156Z,48.6
2019-03-20T13:09:35.837Z,48.2
2019-03-20T13:10:36.518Z,48.1
2019-03-20T13:11:37.199Z,47.4
2019-03-20T13:12:37.883Z,47.3
2019-03-20T13:13:38.562Z,46.8
2019-03-20T13:14:39.242Z,47.0
2019-03-20T13:15:39.923Z,47.0
2019-03-20T13:16:40.605Z,47.3
2019-03-20T13:17:41.287Z,47.4
2019-03-20T13:18:41.967Z,47.6
2019-03-20T13:19:42.648Z,47.0
2019-03-20T13:20:43.328Z,45.8
2019-03-20T13:21:44.011Z,46.5
2019-03-20T13:22:44.694Z,47.5
2019-03-20T13:23:45.372Z,47.0
2019-03-20T13:24:46.061Z,47.9
2019-03-20T13:25:46.733Z,47.8
2019-03-20T13:26:47.416Z,48.0
2019-03-20T13:27:48.099Z,47.7